Time;durP1;ratioP1;P1;durP2;ratioP2;P2;SDS_P1;SDS_P2;PMS_P1;PMS_P2;Temp;Humidity;BMP_temperature;BMP_pressure;BME280_temperature;BME280_humidity;BME280_pressure;Samples;Min_cycle;Max_cycle;Signal;HPM_P1;HPM_P2
2021/12/11 00:00:14;;;;;;;26.40;9.27;;;4.20;99.90;;;;;;5159663;27;20042;-87
2021/12/11 00:02:42;;;;;;;25.73;7.47;;;4.10;99.90;;;;;;5159608;27;20043;-86
2021/12/11 00:05:10;;;;;;;20.20;6.72;;;4.20;99.90;;;;;;5159553;27;20111;-87
2021/12/11 00:07:38;;;;;;;17.15;6.28;;;4.10;99.90;;;;;;5159211;27;20476;-86
2021/12/11 00:10:13;;;;;;;15.18;5.43;;;4.00;99.90;;;;;;5159452;27;20042;-87
2021/12/11 00:12:45;;;;;;;21.83;5.57;;;3.70;99.90;;;;;;5159126;27;20095;-87
2021/12/11 00:15:16;;;;;;;23.88;7.97;;;4.00;99.90;;;;;;5140722;27;20047;-86
2021/12/11 00:17:43;;;;;;;24.67;9.18;;;3.90;99.90;;;;;;5159281;27;20054;-87
2021/12/11 00:20:18;;;;;;;21.65;6.43;;;3.90;99.90;;;;;;5158959;27;20560;-87
2021/12/11 00:22:45;;;;;;;30.80;9.00;;;3.80;99.90;;;;;;5159287;27;20039;-86
2021/12/11 00:25:15;;;;;;;17.35;6.63;;;3.90;99.90;;;;;;5159319;27;20095;-87
2021/12/11 00:27:46;;;;;;;19.65;6.28;;;3.70;99.90;;;;;;5158732;27;20393;-86
2021/12/11 00:30:29;;;;;;;28.70;6.97;;;3.60;99.90;;;;;;5158812;27;20046;-87
2021/12/11 00:33:00;;;;;;;25.95;5.97;;;3.60;99.90;;;;;;5159130;27;20372;-86
2021/12/11 00:35:28;;;;;;;24.65;6.72;;;3.40;99.90;;;;;;5136574;27;20712;-87
2021/12/11 00:38:02;;;;;;;26.85;6.75;;;3.50;99.90;;;;;;5138106;27;20394;-87
2021/12/11 00:40:31;;;;;;;15.27;5.65;;;3.30;99.90;;;;;;5137884;27;20063;-87
2021/12/11 00:43:04;;;;;;;18.02;5.95;;;3.40;99.90;;;;;;5138327;27;20078;-88
2021/12/11 00:45:34;;;;;;;18.75;5.72;;;3.40;99.90;;;;;;5138091;27;20062;-86
2021/12/11 00:48:05;;;;;;;22.45;6.78;;;3.40;99.90;;;;;;5137514;27;20051;-85
2021/12/11 00:50:36;;;;;;;26.60;6.20;;;3.40;99.90;;;;;;5119194;27;20066;-86
2021/12/11 00:53:11;;;;;;;22.02;5.47;;;3.50;99.90;;;;;;5116844;28;20047;-87
2021/12/11 00:55:42;;;;;;;22.15;5.00;;;3.50;99.90;;;;;;5117007;28;20618;-87
2021/12/11 00:58:12;;;;;;;21.33;5.18;;;3.50;99.90;;;;;;5116385;28;20078;-86
2021/12/11 01:00:44;;;;;;;20.52;4.20;;;3.60;99.90;;;;;;5120103;27;20078;-86
2021/12/11 01:03:14;;;;;;;20.35;4.75;;;3.70;99.90;;;;;;5137063;27;20477;-86
2021/12/11 01:05:45;;;;;;;32.05;5.40;;;3.70;99.90;;;;;;5137319;27;20047;-86
2021/12/11 01:08:20;;;;;;;13.43;3.83;;;3.80;99.90;;;;;;5137298;27;20047;-86
2021/12/11 01:10:52;;;;;;;35.80;6.65;;;3.90;99.90;;;;;;5137538;27;20047;-87
2021/12/11 01:13:24;;;;;;;29.45;7.05;;;4.10;99.90;;;;;;5137230;27;20096;-87
2021/12/11 01:15:57;;;;;;;21.73;4.65;;;4.10;99.90;;;;;;5137383;27;20043;-87
2021/12/11 01:18:34;;;;;;;17.02;4.35;;;4.00;99.90;;;;;;5137358;27;20039;-87
2021/12/11 01:21:13;;;;;;;21.02;5.28;;;4.20;99.90;;;;;;5135739;27;20043;-87
2021/12/11 01:24:08;;;;;;;18.63;4.35;;;4.00;99.90;;;;;;5137352;27;20043;-86
2021/12/11 01:26:39;;;;;;;22.50;6.72;;;4.00;99.90;;;;;;5136807;27;20043;-86
2021/12/11 01:29:08;;;;;;;16.48;5.20;;;3.90;99.90;;;;;;5137122;27;20051;-87
2021/12/11 01:31:35;;;;;;;12.93;4.38;;;3.90;99.90;;;;;;5136825;27;20400;-86
2021/12/11 01:34:03;;;;;;;15.25;4.85;;;3.90;99.90;;;;;;5139307;27;20500;-87
2021/12/11 01:36:30;;;;;;;23.50;6.72;;;3.90;99.90;;;;;;5157369;27;20065;-87
2021/12/11 01:39:01;;;;;;;24.00;7.35;;;4.00;99.90;;;;;;5157109;27;20057;-86
2021/12/11 01:41:30;;;;;;;16.35;4.32;;;4.00;99.90;;;;;;5156933;27;20046;-87
2021/12/11 01:44:04;;;;;;;14.60;4.70;;;4.10;99.90;;;;;;5157086;27;20396;-86
2021/12/11 01:46:31;;;;;;;20.65;5.28;;;4.00;99.90;;;;;;5156644;27;20091;-86
2021/12/11 01:49:01;;;;;;;21.15;4.90;;;4.00;99.90;;;;;;5156639;27;20062;-86
2021/12/11 01:51:31;;;;;;;22.73;6.43;;;3.90;99.90;;;;;;5157242;27;20046;-86
2021/12/11 01:54:04;;;;;;;17.67;5.60;;;3.80;99.90;;;;;;5157445;27;20047;-86
2021/12/11 01:56:33;;;;;;;25.17;5.40;;;3.80;99.90;;;;;;5157231;27;20051;-86
2021/12/11 01:59:07;;;;;;;30.60;5.88;;;3.70;99.90;;;;;;5156965;27;20488;-86
2021/12/11 02:01:37;;;;;;;21.25;5.80;;;3.70;99.90;;;;;;5157233;27;20099;-87
2021/12/11 02:04:07;;;;;;;18.95;6.13;;;3.70;99.90;;;;;;5157146;27;20051;-87
2021/12/11 02:06:38;;;;;;;23.50;5.63;;;3.70;99.90;;;;;;5156894;27;20047;-86
2021/12/11 02:09:13;;;;;;;15.73;5.00;;;3.60;99.90;;;;;;5155857;27;20043;-86
2021/12/11 02:11:41;;;;;;;15.73;4.53;;;3.70;99.90;;;;;;5156870;27;20095;-86
2021/12/11 02:14:12;;;;;;;19.85;4.60;;;3.70;99.90;;;;;;5157025;27;20050;-87
2021/12/11 02:16:43;;;;;;;15.80;4.38;;;3.70;99.90;;;;;;5156673;27;20054;-86
2021/12/11 02:19:16;;;;;;;20.80;5.40;;;3.80;99.90;;;;;;5156705;27;20112;-86
2021/12/11 02:21:56;;;;;;;14.30;5.53;;;3.80;99.90;;;;;;5156911;27;20047;-87
2021/12/11 02:24:34;;;;;;;24.75;6.43;;;3.90;99.90;;;;;;5156819;27;20042;-87
2021/12/11 02:27:02;;;;;;;27.70;5.70;;;4.00;99.90;;;;;;5156966;27;20392;-86
2021/12/11 02:29:36;;;;;;;15.38;5.28;;;3.80;99.90;;;;;;5156722;27;20046;-87
2021/12/11 02:32:08;;;;;;;20.17;5.85;;;3.80;99.90;;;;;;5157004;27;20130;-87
2021/12/11 02:34:38;;;;;;;24.27;5.40;;;3.50;99.90;;;;;;5156253;27;20042;-87
2021/12/11 02:37:11;;;;;;;28.73;6.22;;;3.40;99.90;;;;;;5156267;27;20053;-86
2021/12/11 02:39:45;;;;;;;17.83;5.15;;;3.60;99.90;;;;;;5156322;27;20042;-86
2021/12/11 02:42:18;;;;;;;17.67;6.82;;;3.60;99.90;;;;;;5156063;27;20046;-87
2021/12/11 02:44:50;;;;;;;21.30;6.35;;;3.40;99.90;;;;;;5155051;27;20043;-86
2021/12/11 02:47:21;;;;;;;23.90;7.80;;;3.50;99.90;;;;;;5154689;27;20065;-86
2021/12/11 02:49:53;;;;;;;19.63;6.93;;;3.30;99.90;;;;;;5139793;27;20051;-86
2021/12/11 02:52:28;;;;;;;19.40;6.75;;;3.30;99.90;;;;;;5155899;27;20059;-86
2021/12/11 02:55:01;;;;;;;23.20;7.75;;;3.40;99.90;;;;;;5156277;27;20099;-86
2021/12/11 02:57:31;;;;;;;18.80;8.02;;;3.50;99.90;;;;;;5155674;27;20054;-87
2021/12/11 03:00:12;;;;;;;25.92;8.48;;;3.50;99.90;;;;;;5156100;27;20102;-86
2021/12/11 03:02:48;;;;;;;32.42;8.70;;;3.10;99.90;;;;;;5155576;27;20503;-86
2021/12/11 03:05:19;;;;;;;26.75;7.82;;;3.90;99.90;;;;;;5155938;27;20053;-85
2021/12/11 03:07:53;;;;;;;26.23;7.93;;;3.50;99.90;;;;;;5155012;27;20450;-85
2021/12/11 03:10:25;;;;;;;25.88;8.95;;;3.40;99.90;;;;;;5155898;27;20404;-86
2021/12/11 03:12:55;;;;;;;28.05;8.77;;;1.90;99.90;;;;;;5155783;27;20053;-85
2021/12/11 03:15:23;;;;;;;;;;;3.40;99.90;;;;;;5155892;27;20078;-86
2021/12/11 03:17:51;;;;;;;24.40;7.70;;;3.40;99.90;;;;;;5155382;27;19922;-86
2021/12/11 03:20:22;;;;;;;24.42;10.02;;;3.30;99.90;;;;;;5155083;27;20392;-86
2021/12/11 03:22:51;;;;;;;22.65;8.88;;;3.60;99.90;;;;;;5155651;27;20042;-86
2021/12/11 03:25:21;;;;;;;27.50;9.60;;;3.40;99.90;;;;;;5155113;27;20054;-85
2021/12/11 03:27:49;;;;;;;27.98;9.50;;;3.20;99.90;;;;;;5155141;27;20043;-86
2021/12/11 03:30:21;;;;;;;27.48;8.45;;;3.40;99.90;;;;;;5155296;27;20084;-86
2021/12/11 03:32:50;;;;;;;26.85;9.32;;;3.80;99.90;;;;;;5155531;27;20099;-85
2021/12/11 03:35:17;;;;;;;16.90;8.98;;;3.40;99.90;;;;;;5136567;27;20050;-86
2021/12/11 03:37:45;;;;;;;27.55;8.40;;;4.10;99.90;;;;;;5154769;27;20560;-85
2021/12/11 03:40:15;;;;;;;21.75;9.60;;;3.40;99.90;;;;;;5155252;27;20062;-86
2021/12/11 03:42:43;;;;;;;29.98;8.95;;;3.40;99.90;;;;;;5155284;27;20047;-86
2021/12/11 03:45:15;;;;;;;28.02;8.43;;;3.40;99.90;;;;;;5155083;27;20123;-86
2021/12/11 03:47:48;;;;;;;29.60;8.57;;;3.50;99.90;;;;;;5155090;27;20043;-86
2021/12/11 03:50:18;;;;;;;28.50;9.13;;;3.50;99.90;;;;;;5155260;27;20054;-86
2021/12/11 03:52:47;;;;;;;31.52;9.57;;;3.40;99.90;;;;;;5154806;27;20050;-86
2021/12/11 03:55:19;;;;;;;33.53;9.40;;;3.40;99.90;;;;;;5154965;27;20103;-86
2021/12/11 03:57:47;;;;;;;30.00;9.35;;;3.80;99.90;;;;;;5154648;27;20050;-85
2021/12/11 04:00:19;;;;;;;23.30;7.90;;;4.70;99.90;;;;;;5154518;27;20464;-86
2021/12/11 04:02:48;;;;;;;22.73;8.75;;;3.50;99.90;;;;;;5154991;27;20057;-86
2021/12/11 04:05:17;;;;;;;34.50;9.52;;;3.50;99.90;;;;;;5154818;27;20050;-86
2021/12/11 04:07:46;;;;;;;29.65;9.13;;;3.60;99.90;;;;;;5154859;27;20051;-86
2021/12/11 04:10:20;;;;;;;26.33;8.95;;;3.50;99.90;;;;;;5155297;27;20134;-86
2021/12/11 04:12:48;;;;;;;33.63;9.43;;;3.60;99.90;;;;;;5155016;27;20047;-86
2021/12/11 04:15:17;;;;;;;30.45;8.70;;;3.80;99.90;;;;;;5155784;27;20047;-85
2021/12/11 04:17:45;;;;;;;;;;;3.70;99.90;;;;;;5155080;27;20130;-86
2021/12/11 04:20:16;;;;;;;35.88;10.82;;;3.80;99.90;;;;;;5155001;27;19925;-86
2021/12/11 04:22:46;;;;;;;31.20;9.70;;;3.70;99.90;;;;;;5155025;27;20046;-86
2021/12/11 04:25:15;;;;;;;26.00;8.27;;;3.70;99.90;;;;;;5154834;27;20068;-87
2021/12/11 04:27:43;;;;;;;21.65;8.10;;;3.60;99.90;;;;;;5155167;27;20377;-86
2021/12/11 04:30:13;;;;;;;28.60;7.75;;;3.70;99.90;;;;;;5155298;27;20369;-87
2021/12/11 04:32:41;;;;;;;36.67;8.38;;;3.70;99.90;;;;;;5157536;27;20126;-86
2021/12/11 04:35:11;;;;;;;34.55;9.80;;;3.80;99.90;;;;;;5158779;27;20046;-86
2021/12/11 04:37:39;;;;;;;21.80;8.60;;;3.80;99.90;;;;;;5158893;27;20103;-87
2021/12/11 04:40:10;;;;;;;30.83;10.27;;;3.90;99.90;;;;;;5158763;27;20042;-87
2021/12/11 04:42:50;;;;;;;38.67;9.48;;;3.80;99.90;;;;;;5158862;27;20046;-86
2021/12/11 04:45:24;;;;;;;29.15;8.13;;;3.90;99.90;;;;;;5159060;27;20051;-86
2021/12/11 04:47:56;;;;;;;25.30;9.75;;;3.90;99.90;;;;;;5156803;27;20473;-86
2021/12/11 04:50:33;;;;;;;32.83;10.10;;;3.80;99.90;;;;;;5138049;27;20549;-85
2021/12/11 04:53:03;;;;;;;35.17;8.90;;;3.80;99.90;;;;;;5137757;27;20074;-86
2021/12/11 04:55:49;;;;;;;26.85;8.15;;;4.50;99.90;;;;;;5154864;27;20059;-86
2021/12/11 05:01:15;;;;;;;26.73;8.90;;;3.90;99.90;;;;;;5158207;27;20134;-86
2021/12/11 05:07:20;;;;;;;28.70;8.57;;;3.80;99.90;;;;;;5111625;27;20157;-85
2021/12/11 05:10:22;;;;;;;29.48;9.93;;;4.90;99.90;;;;;;5090444;28;20041;-85
2021/12/11 05:13:29;;;;;;;23.98;8.35;;;3.90;99.90;;;;;;5090829;28;20055;-85
2021/12/11 05:16:26;;;;;;;33.90;8.80;;;5.20;99.90;;;;;;5090698;28;20051;-85
2021/12/11 05:25:13;;;;;;;24.60;8.20;;;3.90;99.90;;;;;;5012491;28;20116;-85
2021/12/11 05:27:46;;;;;;;36.63;11.02;;;4.30;99.90;;;;;;5090498;28;20044;-85
2021/12/11 05:30:22;;;;;;;37.22;8.23;;;3.70;99.90;;;;;;5090915;28;20040;-86
2021/12/11 05:32:54;;;;;;;26.77;8.75;;;3.40;99.90;;;;;;5091122;28;20056;-85
2021/12/11 05:35:23;;;;;;;33.88;9.55;;;4.00;99.90;;;;;;5089240;28;20054;-86
2021/12/11 05:37:51;;;;;;;;;;;4.00;99.90;;;;;;5091130;28;20087;-86
2021/12/11 05:40:23;;;;;;;25.35;8.10;;;4.30;99.90;;;;;;5090396;28;19920;-85
2021/12/11 05:42:51;;;;;;;25.05;6.95;;;4.20;99.90;;;;;;5090782;28;20497;-85
2021/12/11 05:45:19;;;;;;;25.38;9.25;;;4.20;99.90;;;;;;5090654;28;20045;-85
2021/12/11 05:47:48;;;;;;;24.25;7.55;;;4.10;99.90;;;;;;5090685;28;20055;-85
2021/12/11 05:50:29;;;;;;;27.83;7.78;;;4.20;99.90;;;;;;5090871;28;20071;-85
2021/12/11 05:52:58;;;;;;;23.90;7.97;;;3.10;99.90;;;;;;5090128;28;20410;-85
2021/12/11 05:55:32;;;;;;;26.08;9.57;;;3.40;99.90;;;;;;5089472;28;20059;-86
2021/12/11 05:58:10;;;;;;;19.00;8.25;;;3.00;99.90;;;;;;5089847;28;20044;-86
2021/12/11 06:00:44;;;;;;;29.00;8.65;;;2.50;99.90;;;;;;5089863;28;20070;-85
2021/12/11 07:11:50;;;;;;;19.67;5.32;;;4.40;99.90;;;;;;4827079;26;20052;-85
2021/12/11 07:18:35;;;;;;;10.93;4.50;;;4.60;99.90;;;;;;4908446;29;20146;-86
2021/12/11 07:25:30;;;;;;;22.67;5.28;;;5.50;99.90;;;;;;4980365;23;20071;-86
2021/12/11 07:41:09;;;;;;;;;;;;;;;;;;;;;
2021/12/11 08:03:22;;;;;;;20.58;4.30;;;5.00;99.90;;;;;;4972404;23;20055;-85
2021/12/11 08:22:56;;;;;;;26.88;5.65;;;5.30;99.90;;;;;;4775152;29;20057;-86
2021/12/11 08:47:46;;;;;;;16.50;4.60;;;6.10;99.90;;;;;;4945554;28;20377;-87
2021/12/11 09:03:27;;;;;;;17.48;4.68;;;6.40;99.90;;;;;;4828747;29;20061;-86
2021/12/11 09:09:43;;;;;;;15.18;4.03;;;4.80;99.90;;;;;;4896516;29;20135;-86
2021/12/11 09:23:05;;;;;;;22.95;4.78;;;6.20;99.90;;;;;;4835078;29;20083;-88
2021/12/11 09:28:54;;;;;;;20.30;5.43;;;6.60;99.90;;;;;;4950036;29;20110;-87
2021/12/11 09:31:44;;;;;;;21.30;5.25;;;5.90;99.90;;;;;;4962427;23;20069;-86
2021/12/11 09:34:54;;;;;;;50.25;6.45;;;7.20;99.90;;;;;;4955645;29;20482;-86
2021/12/11 09:37:51;;;;;;;21.25;4.55;;;5.30;99.90;;;;;;4955637;28;20059;-87
2021/12/11 09:46:20;;;;;;;20.92;4.72;;;6.20;99.90;;;;;;5112537;23;20138;-87
2021/12/11 09:55:39;;;;;;;25.50;4.07;;;6.50;99.90;;;;;;4914768;29;20062;-86
2021/12/11 09:59:10;;;;;;;19.40;4.80;;;6.40;99.90;;;;;;4939931;29;20048;-87
2021/12/11 10:05:18;;;;;;;30.13;7.28;;;7.00;99.90;;;;;;4913343;23;20594;-85
2021/12/11 10:08:03;;;;;;;16.08;4.70;;;6.80;99.90;;;;;;4934290;23;20059;-86
2021/12/11 10:10:37;;;;;;;20.55;5.05;;;7.00;99.90;;;;;;4957112;29;20059;-85
2021/12/11 10:13:05;;;;;;;18.15;4.13;;;5.80;99.90;;;;;;4956262;29;20051;-86
2021/12/11 10:15:51;;;;;;;20.50;4.63;;;6.90;99.90;;;;;;4955496;29;20386;-86
2021/12/11 10:18:25;;;;;;;20.20;5.50;;;6.60;99.90;;;;;;4950151;29;20185;-86
2021/12/11 10:24:34;;;;;;;25.15;6.32;;;6.80;99.90;;;;;;4931613;29;20039;-87
2021/12/11 10:37:15;;;;;;;33.90;8.00;;;7.10;99.90;;;;;;4953288;29;20126;-87
2021/12/11 10:40:16;;;;;;;24.40;5.25;;;7.30;99.90;;;;;;4952389;29;20493;-87
2021/12/11 10:49:19;;;;;;;19.10;3.55;;;7.30;99.90;;;;;;4951604;29;20374;-87
2021/12/11 10:52:07;;;;;;;29.77;4.40;;;8.90;99.90;;;;;;4958263;29;20055;-87
2021/12/11 10:55:17;;;;;;;27.55;5.60;;;7.30;99.90;;;;;;4956901;29;20058;-87
2021/12/11 11:01:39;;;;;;;22.40;4.13;;;7.50;99.90;;;;;;4953461;23;20154;-87
2021/12/11 11:04:46;;;;;;;26.77;3.53;;;7.60;99.90;;;;;;4962001;23;20051;-86
2021/12/11 11:10:37;;;;;;;;;;;;;;;;;;;;;
2021/12/11 11:15:47;;;;;;;17.40;4.07;;;7.30;99.90;;;;;;4945062;23;21139;-87
2021/12/11 11:21:10;;;;;;;26.80;4.60;;;8.10;99.90;;;;;;4932694;29;20125;-85
2021/12/11 11:26:43;;;;;;;24.85;4.88;;;7.80;99.90;;;;;;5229923;23;20121;-86
2021/12/11 11:29:21;;;;;;;19.08;4.70;;;9.60;99.90;;;;;;4921877;29;20075;-86
2021/12/11 11:32:06;;;;;;;25.90;4.30;;;7.80;99.90;;;;;;4921917;29;20052;-86
2021/12/11 11:34:45;;;;;;;23.83;4.97;;;7.80;99.90;;;;;;4930188;29;20060;-86
2021/12/11 11:40:54;;;;;;;22.73;4.47;;;7.70;99.90;;;;;;4932696;23;20090;-85
2021/12/11 11:43:26;;;;;;;15.30;4.05;;;8.00;99.90;;;;;;4957519;29;20051;-84
2021/12/11 11:45:59;;;;;;;25.55;3.80;;;8.00;99.90;;;;;;4956776;29;20051;-85
2021/12/11 11:48:28;;;;;;;20.60;4.15;;;8.20;99.90;;;;;;4956746;29;20055;-85
2021/12/11 11:51:00;;;;;;;19.75;3.92;;;7.80;99.90;;;;;;4959007;29;20079;-85
2021/12/11 11:53:28;;;;;;;25.70;5.28;;;8.00;99.90;;;;;;4950873;29;20055;-84
2021/12/11 11:56:02;;;;;;;18.50;4.20;;;7.90;99.90;;;;;;4956754;29;20069;-85
2021/12/11 11:58:54;;;;;;;18.13;4.88;;;7.90;99.90;;;;;;4956270;29;20070;-85
2021/12/11 12:01:47;;;;;;;33.15;9.30;;;6.90;99.90;;;;;;4956114;29;20126;-86
2021/12/11 12:04:18;;;;;;;18.88;4.07;;;8.20;99.90;;;;;;4955845;29;20051;-85
2021/12/11 12:07:16;;;;;;;19.55;3.70;;;7.90;99.90;;;;;;4956570;29;20052;-85
2021/12/11 12:10:05;;;;;;;22.83;6.95;;;8.10;99.90;;;;;;4955324;29;20051;-85
2021/12/11 12:16:00;;;;;;;21.67;3.75;;;7.90;99.90;;;;;;4896609;29;20052;-86
2021/12/11 12:34:24;;;;;;;20.80;4.63;;;8.00;99.90;;;;;;4930959;23;20052;-86
2021/12/11 12:37:00;;;;;;;17.70;3.90;;;7.50;99.90;;;;;;4932936;29;20066;-86
2021/12/11 12:39:37;;;;;;;14.45;5.22;;;8.00;99.90;;;;;;4927133;29;20080;-86
2021/12/11 12:42:27;;;;;;;23.70;6.10;;;8.10;99.90;;;;;;4918234;29;20056;-86
2021/12/11 12:45:07;;;;;;;18.88;3.47;;;8.30;99.90;;;;;;4933370;29;20142;-86
2021/12/11 12:47:40;;;;;;;23.45;4.40;;;8.30;99.90;;;;;;4936942;29;20051;-86
2021/12/11 12:50:22;;;;;;;25.85;4.70;;;7.90;99.90;;;;;;4936847;29;20056;-86
2021/12/11 12:52:51;;;;;;;17.27;3.97;;;8.20;99.90;;;;;;4896843;29;20059;-86
2021/12/11 12:55:23;;;;;;;18.85;4.30;;;8.40;99.90;;;;;;4897184;29;20084;-85
2021/12/11 12:57:54;;;;;;;16.90;3.72;;;8.30;99.90;;;;;;4898353;29;20052;-85
2021/12/11 13:00:26;;;;;;;22.73;4.90;;;8.60;99.90;;;;;;4898643;29;20059;-85
2021/12/11 13:02:58;;;;;;;26.08;4.10;;;8.40;99.90;;;;;;4898406;29;20049;-85
2021/12/11 13:05:29;;;;;;;23.40;4.57;;;8.20;99.90;;;;;;4897603;29;20504;-85
2021/12/11 13:07:59;;;;;;;22.95;5.07;;;8.40;99.90;;;;;;4897949;29;20049;-84
2021/12/11 13:10:33;;;;;;;18.95;4.18;;;8.10;99.90;;;;;;4898245;29;20056;-85
2021/12/11 13:13:01;;;;;;;15.23;3.33;;;8.30;99.90;;;;;;4898003;29;20049;-85
2021/12/11 13:15:32;;;;;;;21.20;5.32;;;8.10;99.90;;;;;;4897962;29;20088;-86
2021/12/11 13:18:04;;;;;;;23.85;4.85;;;7.90;99.90;;;;;;4898817;29;20068;-86
2021/12/11 13:20:34;;;;;;;28.98;6.78;;;8.40;99.90;;;;;;4900609;29;20060;-85
2021/12/11 13:23:04;;;;;;;21.27;3.88;;;8.20;99.90;;;;;;4898302;29;20057;-86
2021/12/11 13:25:40;;;;;;;21.65;5.00;;;8.30;99.90;;;;;;4898139;29;20084;-85
2021/12/11 13:28:12;;;;;;;21.05;5.28;;;9.40;99.90;;;;;;4901143;29;20076;-85
2021/12/11 13:30:53;;;;;;;23.85;5.30;;;8.30;99.90;;;;;;4903103;29;20064;-88
2021/12/11 13:33:27;;;;;;;15.75;4.40;;;8.10;99.90;;;;;;4902472;29;20140;-85
2021/12/11 13:36:14;;;;;;;22.25;5.40;;;8.30;99.90;;;;;;4901877;29;20052;-85
2021/12/11 13:38:44;;;;;;;16.42;4.72;;;8.70;99.90;;;;;;4901943;29;20100;-85
2021/12/11 13:41:33;;;;;;;;;;;8.30;99.90;;;;;;4902209;29;20570;-86
2021/12/11 13:44:05;;;;;;;21.25;6.03;;;8.50;99.90;;;;;;4901444;29;19978;-86
2021/12/11 13:46:32;;;;;;;11.13;3.92;;;8.20;99.90;;;;;;4902141;29;20064;-86
2021/12/11 13:48:59;;;;;;;16.35;4.07;;;8.30;99.90;;;;;;4902847;29;20059;-86
2021/12/11 13:51:44;;;;;;;12.45;3.20;;;8.50;99.90;;;;;;4891277;29;20071;-86
2021/12/11 13:54:15;;;;;;;28.08;5.43;;;7.10;99.90;;;;;;4882816;29;20049;-84
2021/12/11 13:56:46;;;;;;;16.17;4.07;;;8.30;99.90;;;;;;4882978;29;20053;-86
2021/12/11 13:59:14;;;;;;;21.63;4.57;;;8.40;99.90;;;;;;4883985;29;20101;-85
2021/12/11 14:01:41;;;;;;;26.52;4.63;;;8.40;99.90;;;;;;4884626;29;20095;-86
2021/12/11 14:04:12;;;;;;;20.40;4.28;;;8.20;99.90;;;;;;4883079;29;20326;-86
2021/12/11 14:06:48;;;;;;;22.88;4.57;;;8.20;99.90;;;;;;4883148;29;20231;-86
2021/12/11 14:09:18;;;;;;;14.95;3.10;;;8.10;99.90;;;;;;4882374;29;20136;-86
2021/12/11 14:11:51;;;;;;;15.15;4.05;;;8.40;99.90;;;;;;4882522;29;20162;-85
2021/12/11 14:14:19;;;;;;;20.50;4.32;;;8.30;99.90;;;;;;4882500;29;20052;-86
2021/12/11 14:16:47;;;;;;;34.60;6.07;;;8.10;99.90;;;;;;4882283;29;20053;-86
2021/12/11 14:19:17;;;;;;;20.55;4.03;;;8.00;99.90;;;;;;4882297;29;20136;-86
2021/12/11 14:21:45;;;;;;;22.13;4.05;;;8.00;99.90;;;;;;4883016;29;20052;-87
2021/12/11 14:24:13;;;;;;;25.40;4.22;;;7.20;99.90;;;;;;4882216;29;20374;-85
2021/12/11 14:26:44;;;;;;;26.23;5.95;;;8.10;99.90;;;;;;4881718;29;20053;-85
2021/12/11 14:29:15;;;;;;;18.98;3.75;;;8.60;99.90;;;;;;4881211;29;20443;-85
2021/12/11 14:31:45;;;;;;;25.40;6.90;;;8.00;99.90;;;;;;4882660;29;20076;-86
2021/12/11 14:34:12;;;;;;;24.40;7.28;;;8.10;99.90;;;;;;4882087;29;20045;-85
2021/12/11 14:36:40;;;;;;;21.98;7.75;;;8.10;99.90;;;;;;4881456;29;20508;-85
2021/12/11 14:39:10;;;;;;;27.48;7.70;;;8.10;99.90;;;;;;4882311;29;20053;-86
2021/12/11 14:41:42;;;;;;;26.00;5.82;;;8.00;99.90;;;;;;4882589;29;20132;-85
2021/12/11 14:44:15;;;;;;;30.05;6.35;;;8.10;99.90;;;;;;4882677;29;20105;-87
2021/12/11 14:46:42;;;;;;;22.73;6.78;;;8.50;99.90;;;;;;4883094;29;20092;-85
2021/12/11 14:49:09;;;;;;;25.95;7.68;;;8.20;99.90;;;;;;4885655;29;20400;-85
2021/12/11 14:51:36;;;;;;;20.85;5.47;;;8.30;99.90;;;;;;4893005;29;20052;-84
2021/12/11 14:54:14;;;;;;;21.38;5.63;;;8.40;99.90;;;;;;4899684;29;20112;-84
2021/12/11 14:56:46;;;;;;;16.00;4.60;;;8.40;99.90;;;;;;4901102;29;20443;-85
2021/12/11 14:59:19;;;;;;;22.33;4.75;;;8.40;99.90;;;;;;4900359;29;20052;-86
2021/12/11 15:01:49;;;;;;;26.05;7.10;;;8.40;99.90;;;;;;4900788;29;20085;-86
2021/12/11 15:04:19;;;;;;;14.57;4.80;;;8.40;99.90;;;;;;4900463;29;20077;-85
2021/12/11 15:06:48;;;;;;;13.48;3.83;;;8.40;99.90;;;;;;4900242;29;20060;-84
2021/12/11 15:09:15;;;;;;;24.90;6.23;;;8.40;99.90;;;;;;4900699;29;20056;-86
2021/12/11 15:11:44;;;;;;;20.80;7.40;;;8.40;99.90;;;;;;4900334;29;20331;-85
2021/12/11 15:14:19;;;;;;;18.38;5.63;;;8.30;99.90;;;;;;4901097;29;20048;-85
2021/12/11 15:16:49;;;;;;;19.48;6.05;;;8.30;99.90;;;;;;4899942;29;20052;-85
2021/12/11 15:19:16;;;;;;;19.55;6.45;;;8.30;99.90;;;;;;4900117;29;20044;-86
2021/12/11 15:21:44;;;;;;;18.63;5.82;;;8.20;99.90;;;;;;4900326;29;20076;-86
2021/12/11 15:24:49;;;;;;;20.63;5.75;;;8.20;99.90;;;;;;4901541;29;20484;-85
2021/12/11 15:27:17;;;;;;;30.80;6.93;;;8.30;99.90;;;;;;4868022;29;20092;-86
2021/12/11 15:29:48;;;;;;;25.17;7.07;;;8.30;99.90;;;;;;4900162;29;20053;-86
2021/12/11 15:32:15;;;;;;;23.10;6.53;;;8.30;99.90;;;;;;4900133;29;20052;-86
2021/12/11 15:34:43;;;;;;;20.88;6.93;;;8.30;99.90;;;;;;4899743;29;20499;-86
2021/12/11 15:37:13;;;;;;;25.17;8.02;;;8.30;99.90;;;;;;4900088;29;20045;-85
2021/12/11 15:39:45;;;;;;;21.80;6.95;;;8.30;99.90;;;;;;4900340;29;20067;-84
2021/12/11 15:42:13;;;;;;;20.00;7.25;;;8.30;99.90;;;;;;4899672;29;20079;-83
2021/12/11 15:44:45;;;;;;;22.08;7.45;;;8.30;99.90;;;;;;4900225;29;20052;-84
2021/12/11 15:47:15;;;;;;;20.65;7.10;;;8.40;99.90;;;;;;4900191;29;20059;-85
2021/12/11 15:49:43;;;;;;;20.25;7.70;;;8.30;99.90;;;;;;4898711;29;20057;-85
2021/12/11 15:52:13;;;;;;;28.27;8.05;;;8.30;99.90;;;;;;4899064;29;20059;-85
2021/12/11 15:54:41;;;;;;;20.67;8.13;;;8.20;99.90;;;;;;4899497;29;20052;-84
2021/12/11 15:57:10;;;;;;;22.58;9.50;;;8.30;99.90;;;;;;4899894;29;20142;-85
2021/12/11 15:59:39;;;;;;;22.90;7.75;;;8.30;99.90;;;;;;4901417;29;20053;-85
2021/12/11 16:02:07;;;;;;;19.13;8.43;;;8.40;99.90;;;;;;4900099;29;20057;-85
2021/12/11 16:04:36;;;;;;;22.10;8.90;;;8.40;99.90;;;;;;4899389;29;20408;-85
2021/12/11 16:07:06;;;;;;;;;;;8.60;99.90;;;;;;4900325;29;20048;-85
2021/12/11 16:09:36;;;;;;;21.50;10.30;;;8.40;99.90;;;;;;4899292;29;19923;-85
2021/12/11 16:12:05;;;;;;;;;;;8.50;99.90;;;;;;4899725;29;20052;-85
2021/12/11 16:14:32;;;;;;;19.50;7.50;;;8.70;99.90;;;;;;4899693;29;19923;-85
2021/12/11 16:17:03;;;;;;;21.98;8.25;;;8.50;99.90;;;;;;4899682;29;20057;-85
2021/12/11 16:19:31;;;;;;;16.52;7.95;;;8.40;99.90;;;;;;4899602;29;20068;-85
2021/12/11 16:22:07;;;;;;;14.65;6.75;;;8.40;99.90;;;;;;4899214;29;20088;-85
2021/12/11 16:24:37;;;;;;;22.23;8.25;;;6.80;99.90;;;;;;4899217;29;20140;-84
2021/12/11 16:27:05;;;;;;;19.25;7.70;;;7.00;99.90;;;;;;4899306;29;20061;-85
2021/12/11 16:29:37;;;;;;;20.13;8.00;;;8.40;99.90;;;;;;4899138;29;20056;-87
2021/12/11 16:32:05;;;;;;;19.23;7.93;;;8.50;99.90;;;;;;4899091;29;20109;-85
2021/12/11 16:34:33;;;;;;;19.35;7.93;;;8.60;99.90;;;;;;4898627;29;20076;-84
2021/12/11 16:37:05;;;;;;;16.65;7.65;;;8.50;99.90;;;;;;4898945;29;20057;-85
2021/12/11 16:39:32;;;;;;;17.13;8.55;;;8.50;99.90;;;;;;4898571;29;20056;-84
2021/12/11 16:42:01;;;;;;;23.17;10.00;;;8.50;99.90;;;;;;4898299;29;20431;-85
2021/12/11 16:44:31;;;;;;;19.98;8.35;;;8.50;99.90;;;;;;4898278;29;20053;-85
2021/12/11 16:47:02;;;;;;;21.85;8.70;;;8.50;99.90;;;;;;4900480;29;20056;-85
2021/12/11 16:49:30;;;;;;;22.75;8.52;;;8.50;99.90;;;;;;4899830;29;20056;-86
2021/12/11 16:51:59;;;;;;;18.60;8.50;;;8.50;99.90;;;;;;4900311;29;20504;-85
2021/12/11 16:54:31;;;;;;;17.40;8.88;;;8.60;99.90;;;;;;4899766;29;20045;-85
2021/12/11 16:56:58;;;;;;;15.10;8.68;;;8.60;99.90;;;;;;4898477;29;20468;-84
2021/12/11 16:59:25;;;;;;;23.05;9.20;;;8.00;99.90;;;;;;4900514;29;20052;-84
2021/12/11 17:01:53;;;;;;;15.20;6.82;;;8.70;99.90;;;;;;4897969;29;20063;-85
2021/12/11 17:04:24;;;;;;;21.00;8.43;;;8.80;99.90;;;;;;4899047;29;20115;-85
2021/12/11 17:06:55;;;;;;;20.38;11.90;;;8.90;99.90;;;;;;4897906;29;20448;-85
2021/12/11 17:09:23;;;;;;;19.75;10.07;;;8.80;99.90;;;;;;4898040;29;20080;-86
2021/12/11 17:11:53;;;;;;;19.70;11.07;;;8.80;99.90;;;;;;4898545;29;20068;-85
2021/12/11 17:14:20;;;;;;;20.90;9.70;;;8.90;99.90;;;;;;4898811;29;20061;-86
2021/12/11 17:16:47;;;;;;;27.38;12.18;;;8.80;99.90;;;;;;4898612;29;20076;-85
2021/12/11 17:19:16;;;;;;;26.55;10.65;;;8.80;99.90;;;;;;4899570;29;20057;-85
2021/12/11 17:21:43;;;;;;;24.27;12.30;;;8.80;99.90;;;;;;4899460;29;20104;-85
2021/12/11 17:24:13;;;;;;;28.60;13.52;;;8.90;99.90;;;;;;4898494;29;20395;-84
2021/12/11 17:26:41;;;;;;;23.75;10.32;;;8.90;99.90;;;;;;4898769;29;20116;-86
2021/12/11 17:29:12;;;;;;;23.00;11.57;;;8.90;99.90;;;;;;4899181;29;20052;-85
2021/12/11 17:31:40;;;;;;;24.48;8.55;;;8.80;99.90;;;;;;4898224;29;20108;-85
2021/12/11 17:34:09;;;;;;;21.00;9.45;;;8.80;99.90;;;;;;4897843;29;20057;-85
2021/12/11 17:36:37;;;;;;;21.13;8.27;;;8.80;99.90;;;;;;4897438;29;20048;-85
2021/12/11 17:39:07;;;;;;;20.25;9.23;;;8.80;99.90;;;;;;4898261;29;20456;-85
2021/12/11 17:41:36;;;;;;;20.63;9.45;;;8.80;99.90;;;;;;4899648;29;20059;-85
2021/12/11 17:44:05;;;;;;;19.23;8.60;;;8.90;99.90;;;;;;4899091;29;20109;-84
2021/12/11 17:46:36;;;;;;;21.98;10.95;;;8.90;99.90;;;;;;4898157;29;20057;-85